sensor_id;sensor_type;location;lat;lon;timestamp;P1;durP1;ratioP1;P2;durP2;ratioP2
74152;SDS011;62505;46.070;14.492;2023-02-18T00:01:20;8.38;;;6.50;;
74152;SDS011;62505;46.070;14.492;2023-02-18T00:03:48;9.25;;;6.50;;
74152;SDS011;62505;46.070;14.492;2023-02-18T00:06:18;8.05;;;6.53;;
74152;SDS011;62505;46.070;14.492;2023-02-18T00:08:47;8.55;;;6.22;;
74152;SDS011;62505;46.070;14.492;2023-02-18T00:11:15;7.65;;;6.35;;
74152;SDS011;62505;46.070;14.492;2023-02-18T00:13:48;7.00;;;6.05;;
74152;SDS011;62505;46.070;14.492;2023-02-18T00:16:15;7.00;;;6.03;;
74152;SDS011;62505;46.070;14.492;2023-02-18T00:18:42;8.80;;;6.55;;
74152;SDS011;62505;46.070;14.492;2023-02-18T00:21:09;6.68;;;6.03;;
74152;SDS011;62505;46.070;14.492;2023-02-18T00:23:37;7.50;;;6.15;;
74152;SDS011;62505;46.070;14.492;2023-02-18T00:26:05;7.63;;;6.05;;
74152;SDS011;62505;46.070;14.492;2023-02-18T00:28:33;8.40;;;6.22;;
74152;SDS011;62505;46.070;14.492;2023-02-18T00:31:04;8.07;;;6.30;;
74152;SDS011;62505;46.070;14.492;2023-02-18T00:33:32;6.93;;;5.90;;
74152;SDS011;62505;46.070;14.492;2023-02-18T00:36:00;8.10;;;6.10;;
74152;SDS011;62505;46.070;14.492;2023-02-18T00:38:28;8.10;;;6.40;;
74152;SDS011;62505;46.070;14.492;2023-02-18T00:40:57;7.68;;;5.75;;
74152;SDS011;62505;46.070;14.492;2023-02-18T00:43:24;8.30;;;6.55;;
74152;SDS011;62505;46.070;14.492;2023-02-18T00:45:51;7.35;;;6.20;;
74152;SDS011;62505;46.070;14.492;2023-02-18T00:48:18;8.18;;;6.50;;
74152;SDS011;62505;46.070;14.492;2023-02-18T00:50:46;7.35;;;5.82;;
74152;SDS011;62505;46.070;14.492;2023-02-18T00:53:13;6.88;;;6.10;;
74152;SDS011;62505;46.070;14.492;2023-02-18T00:55:40;7.68;;;6.47;;
74152;SDS011;62505;46.070;14.492;2023-02-18T00:58:09;8.80;;;5.78;;
74152;SDS011;62505;46.070;14.492;2023-02-18T01:00:37;6.72;;;5.70;;
74152;SDS011;62505;46.070;14.492;2023-02-18T01:03:04;7.20;;;5.93;;
74152;SDS011;62505;46.070;14.492;2023-02-18T01:05:33;7.75;;;6.72;;
74152;SDS011;62505;46.070;14.492;2023-02-18T01:08:00;6.75;;;5.75;;
74152;SDS011;62505;46.070;14.492;2023-02-18T01:10:27;8.25;;;6.38;;
74152;SDS011;62505;46.070;14.492;2023-02-18T01:12:54;7.45;;;5.93;;
74152;SDS011;62505;46.070;14.492;2023-02-18T01:15:23;8.07;;;6.40;;
74152;SDS011;62505;46.070;14.492;2023-02-18T01:17:50;7.55;;;6.13;;
74152;SDS011;62505;46.070;14.492;2023-02-18T01:20:17;8.55;;;6.82;;
74152;SDS011;62505;46.070;14.492;2023-02-18T01:22:45;6.95;;;6.25;;
74152;SDS011;62505;46.070;14.492;2023-02-18T01:25:12;7.70;;;6.40;;
74152;SDS011;62505;46.070;14.492;2023-02-18T01:27:40;7.43;;;6.55;;
74152;SDS011;62505;46.070;14.492;2023-02-18T01:30:08;6.72;;;6.03;;
74152;SDS011;62505;46.070;14.492;2023-02-18T01:32:39;6.50;;;5.72;;
74152;SDS011;62505;46.070;14.492;2023-02-18T01:35:06;7.53;;;6.30;;
74152;SDS011;62505;46.070;14.492;2023-02-18T01:37:36;7.13;;;6.07;;
74152;SDS011;62505;46.070;14.492;2023-02-18T01:40:03;8.63;;;6.25;;
74152;SDS011;62505;46.070;14.492;2023-02-18T01:42:31;7.90;;;6.53;;
74152;SDS011;62505;46.070;14.492;2023-02-18T01:48:10;8.07;;;6.25;;
74152;SDS011;62505;46.070;14.492;2023-02-18T01:50:41;7.80;;;6.43;;
74152;SDS011;62505;46.070;14.492;2023-02-18T01:53:11;6.50;;;5.50;;
74152;SDS011;62505;46.070;14.492;2023-02-18T01:55:41;7.10;;;6.30;;
74152;SDS011;62505;46.070;14.492;2023-02-18T01:58:09;6.93;;;5.97;;
74152;SDS011;62505;46.070;14.492;2023-02-18T02:00:38;7.07;;;5.63;;
74152;SDS011;62505;46.070;14.492;2023-02-18T02:03:05;6.70;;;5.82;;
74152;SDS011;62505;46.070;14.492;2023-02-18T02:05:33;8.07;;;6.20;;
74152;SDS011;62505;46.070;14.492;2023-02-18T02:08:01;7.22;;;6.13;;
74152;SDS011;62505;46.070;14.492;2023-02-18T02:10:32;7.05;;;5.93;;
74152;SDS011;62505;46.070;14.492;2023-02-18T02:13:09;6.82;;;5.97;;
74152;SDS011;62505;46.070;14.492;2023-02-18T02:15:43;8.07;;;5.93;;
74152;SDS011;62505;46.070;14.492;2023-02-18T02:18:17;7.45;;;6.15;;
74152;SDS011;62505;46.070;14.492;2023-02-18T02:27:18;6.97;;;5.97;;
74152;SDS011;62505;46.070;14.492;2023-02-18T02:35:52;7.60;;;5.85;;
74152;SDS011;62505;46.070;14.492;2023-02-18T02:38:27;7.55;;;6.20;;
74152;SDS011;62505;46.070;14.492;2023-02-18T02:41:01;7.72;;;6.25;;
74152;SDS011;62505;46.070;14.492;2023-02-18T02:43:40;6.80;;;5.80;;
74152;SDS011;62505;46.070;14.492;2023-02-18T02:46:14;7.70;;;6.25;;
74152;SDS011;62505;46.070;14.492;2023-02-18T02:48:47;7.43;;;5.85;;
74152;SDS011;62505;46.070;14.492;2023-02-18T02:51:21;6.82;;;5.40;;
74152;SDS011;62505;46.070;14.492;2023-02-18T02:53:53;7.05;;;5.82;;
74152;SDS011;62505;46.070;14.492;2023-02-18T02:56:21;7.75;;;6.20;;
74152;SDS011;62505;46.070;14.492;2023-02-18T02:58:52;6.22;;;5.25;;
74152;SDS011;62505;46.070;14.492;2023-02-18T03:01:27;6.80;;;5.88;;
74152;SDS011;62505;46.070;14.492;2023-02-18T03:07:01;7.35;;;6.20;;
74152;SDS011;62505;46.070;14.492;2023-02-18T03:09:46;6.60;;;5.90;;
74152;SDS011;62505;46.070;14.492;2023-02-18T03:12:24;6.85;;;6.07;;
74152;SDS011;62505;46.070;14.492;2023-02-18T03:15:01;7.78;;;6.13;;
74152;SDS011;62505;46.070;14.492;2023-02-18T03:17:34;7.30;;;5.85;;
74152;SDS011;62505;46.070;14.492;2023-02-18T03:20:05;7.68;;;6.00;;
74152;SDS011;62505;46.070;14.492;2023-02-18T03:22:38;7.03;;;5.80;;
74152;SDS011;62505;46.070;14.492;2023-02-18T03:25:09;8.20;;;6.32;;
74152;SDS011;62505;46.070;14.492;2023-02-18T03:27:37;7.28;;;5.97;;
74152;SDS011;62505;46.070;14.492;2023-02-18T03:30:09;7.07;;;5.80;;
74152;SDS011;62505;46.070;14.492;2023-02-18T03:32:39;8.10;;;6.22;;
74152;SDS011;62505;46.070;14.492;2023-02-18T03:35:07;6.53;;;5.72;;
74152;SDS011;62505;46.070;14.492;2023-02-18T03:37:38;10.25;;;6.07;;
74152;SDS011;62505;46.070;14.492;2023-02-18T03:40:11;6.80;;;5.75;;
74152;SDS011;62505;46.070;14.492;2023-02-18T03:42:39;7.00;;;6.07;;
74152;SDS011;62505;46.070;14.492;2023-02-18T03:45:06;10.43;;;6.05;;
74152;SDS011;62505;46.070;14.492;2023-02-18T03:47:33;7.35;;;5.85;;
74152;SDS011;62505;46.070;14.492;2023-02-18T03:50:00;7.50;;;6.05;;
74152;SDS011;62505;46.070;14.492;2023-02-18T03:52:27;7.90;;;6.35;;
74152;SDS011;62505;46.070;14.492;2023-02-18T03:54:56;7.55;;;5.82;;
74152;SDS011;62505;46.070;14.492;2023-02-18T03:57:23;6.63;;;5.68;;
74152;SDS011;62505;46.070;14.492;2023-02-18T03:59:50;6.70;;;5.75;;
74152;SDS011;62505;46.070;14.492;2023-02-18T04:02:17;7.60;;;5.85;;
74152;SDS011;62505;46.070;14.492;2023-02-18T04:04:44;7.53;;;6.35;;
74152;SDS011;62505;46.070;14.492;2023-02-18T04:07:11;6.78;;;5.68;;
74152;SDS011;62505;46.070;14.492;2023-02-18T04:09:38;7.75;;;6.20;;
74152;SDS011;62505;46.070;14.492;2023-02-18T04:12:06;9.02;;;6.05;;
74152;SDS011;62505;46.070;14.492;2023-02-18T04:14:33;7.30;;;5.95;;
74152;SDS011;62505;46.070;14.492;2023-02-18T04:17:00;6.97;;;5.53;;
74152;SDS011;62505;46.070;14.492;2023-02-18T04:19:27;7.22;;;5.90;;
74152;SDS011;62505;46.070;14.492;2023-02-18T04:21:54;6.55;;;5.68;;
74152;SDS011;62505;46.070;14.492;2023-02-18T04:24:21;8.60;;;5.80;;
74152;SDS011;62505;46.070;14.492;2023-02-18T04:26:48;6.00;;;5.20;;
74152;SDS011;62505;46.070;14.492;2023-02-18T04:29:16;7.65;;;5.93;;
74152;SDS011;62505;46.070;14.492;2023-02-18T04:31:43;6.82;;;6.03;;
74152;SDS011;62505;46.070;14.492;2023-02-18T04:34:10;6.20;;;5.40;;
74152;SDS011;62505;46.070;14.492;2023-02-18T04:36:37;7.15;;;5.60;;
74152;SDS011;62505;46.070;14.492;2023-02-18T04:39:04;6.65;;;5.28;;
74152;SDS011;62505;46.070;14.492;2023-02-18T04:41:31;6.25;;;5.65;;
74152;SDS011;62505;46.070;14.492;2023-02-18T04:43:58;6.68;;;5.70;;
74152;SDS011;62505;46.070;14.492;2023-02-18T04:46:27;8.13;;;6.25;;
74152;SDS011;62505;46.070;14.492;2023-02-18T04:48:54;7.32;;;5.68;;
74152;SDS011;62505;46.070;14.492;2023-02-18T04:51:21;6.88;;;5.82;;
74152;SDS011;62505;46.070;14.492;2023-02-18T04:53:48;9.02;;;6.15;;
74152;SDS011;62505;46.070;14.492;2023-02-18T04:56:15;7.85;;;6.10;;
74152;SDS011;62505;46.070;14.492;2023-02-18T04:58:42;7.18;;;5.38;;
74152;SDS011;62505;46.070;14.492;2023-02-18T05:01:09;6.80;;;5.50;;
74152;SDS011;62505;46.070;14.492;2023-02-18T05:03:37;7.47;;;6.03;;
74152;SDS011;62505;46.070;14.492;2023-02-18T05:06:05;7.30;;;5.35;;
74152;SDS011;62505;46.070;14.492;2023-02-18T05:08:32;7.72;;;6.00;;
74152;SDS011;62505;46.070;14.492;2023-02-18T05:10:59;6.72;;;5.65;;
74152;SDS011;62505;46.070;14.492;2023-02-18T05:13:30;7.57;;;5.97;;
74152;SDS011;62505;46.070;14.492;2023-02-18T05:15:59;7.22;;;6.00;;
74152;SDS011;62505;46.070;14.492;2023-02-18T05:18:26;6.35;;;5.47;;
74152;SDS011;62505;46.070;14.492;2023-02-18T05:20:55;7.35;;;6.20;;
74152;SDS011;62505;46.070;14.492;2023-02-18T05:23:22;6.82;;;5.70;;
74152;SDS011;62505;46.070;14.492;2023-02-18T05:25:50;6.68;;;5.78;;
74152;SDS011;62505;46.070;14.492;2023-02-18T05:28:17;6.47;;;5.45;;
74152;SDS011;62505;46.070;14.492;2023-02-18T05:30:44;6.85;;;5.53;;
74152;SDS011;62505;46.070;14.492;2023-02-18T05:33:11;6.88;;;5.70;;
74152;SDS011;62505;46.070;14.492;2023-02-18T05:35:38;7.18;;;5.72;;
74152;SDS011;62505;46.070;14.492;2023-02-18T05:38:07;7.88;;;6.05;;
74152;SDS011;62505;46.070;14.492;2023-02-18T05:40:34;7.28;;;5.30;;
74152;SDS011;62505;46.070;14.492;2023-02-18T05:43:01;7.15;;;5.90;;
74152;SDS011;62505;46.070;14.492;2023-02-18T05:45:29;7.63;;;5.95;;
74152;SDS011;62505;46.070;14.492;2023-02-18T05:47:56;7.25;;;5.80;;
74152;SDS011;62505;46.070;14.492;2023-02-18T05:50:23;6.93;;;5.63;;
74152;SDS011;62505;46.070;14.492;2023-02-18T05:52:50;7.30;;;5.75;;
74152;SDS011;62505;46.070;14.492;2023-02-18T05:55:18;6.60;;;5.72;;
74152;SDS011;62505;46.070;14.492;2023-02-18T05:57:45;6.85;;;5.47;;
74152;SDS011;62505;46.070;14.492;2023-02-18T06:00:13;6.68;;;5.97;;
74152;SDS011;62505;46.070;14.492;2023-02-18T06:02:40;8.10;;;5.93;;
74152;SDS011;62505;46.070;14.492;2023-02-18T06:05:08;6.90;;;5.72;;
74152;SDS011;62505;46.070;14.492;2023-02-18T06:07:35;6.78;;;5.60;;
74152;SDS011;62505;46.070;14.492;2023-02-18T06:10:03;7.10;;;5.80;;
74152;SDS011;62505;46.070;14.492;2023-02-18T06:12:33;7.45;;;6.18;;
74152;SDS011;62505;46.070;14.492;2023-02-18T06:15:00;7.72;;;6.13;;
74152;SDS011;62505;46.070;14.492;2023-02-18T06:17:27;7.20;;;5.93;;
74152;SDS011;62505;46.070;14.492;2023-02-18T06:19:54;6.22;;;5.43;;
74152;SDS011;62505;46.070;14.492;2023-02-18T06:22:21;6.78;;;5.75;;
74152;SDS011;62505;46.070;14.492;2023-02-18T06:24:48;6.18;;;5.50;;
74152;SDS011;62505;46.070;14.492;2023-02-18T06:27:15;5.88;;;5.22;;
74152;SDS011;62505;46.070;14.492;2023-02-18T06:29:43;6.85;;;5.57;;
74152;SDS011;62505;46.070;14.492;2023-02-18T06:32:10;6.32;;;5.40;;
74152;SDS011;62505;46.070;14.492;2023-02-18T06:34:38;7.88;;;6.07;;
74152;SDS011;62505;46.070;14.492;2023-02-18T06:37:05;6.55;;;5.35;;
74152;SDS011;62505;46.070;14.492;2023-02-18T06:39:32;7.20;;;5.82;;
74152;SDS011;62505;46.070;14.492;2023-02-18T06:41:59;6.65;;;5.68;;
74152;SDS011;62505;46.070;14.492;2023-02-18T06:44:31;7.20;;;5.88;;
74152;SDS011;62505;46.070;14.492;2023-02-18T06:46:59;7.05;;;5.72;;
74152;SDS011;62505;46.070;14.492;2023-02-18T06:49:26;7.85;;;5.95;;
74152;SDS011;62505;46.070;14.492;2023-02-18T06:51:54;6.82;;;5.68;;
74152;SDS011;62505;46.070;14.492;2023-02-18T06:54:21;7.68;;;5.53;;
74152;SDS011;62505;46.070;14.492;2023-02-18T06:56:49;8.43;;;5.53;;
74152;SDS011;62505;46.070;14.492;2023-02-18T06:59:16;10.75;;;5.93;;
74152;SDS011;62505;46.070;14.492;2023-02-18T07:01:44;6.88;;;5.45;;
74152;SDS011;62505;46.070;14.492;2023-02-18T07:04:12;6.68;;;5.97;;
74152;SDS011;62505;46.070;14.492;2023-02-18T07:06:39;6.50;;;5.55;;
74152;SDS011;62505;46.070;14.492;2023-02-18T07:09:06;7.75;;;6.30;;
74152;SDS011;62505;46.070;14.492;2023-02-18T07:11:33;8.65;;;6.05;;
74152;SDS011;62505;46.070;14.492;2023-02-18T07:14:00;8.38;;;6.38;;
74152;SDS011;62505;46.070;14.492;2023-02-18T07:16:27;7.65;;;6.00;;
74152;SDS011;62505;46.070;14.492;2023-02-18T07:18:54;6.15;;;5.55;;
74152;SDS011;62505;46.070;14.492;2023-02-18T07:21:22;7.40;;;5.70;;
74152;SDS011;62505;46.070;14.492;2023-02-18T07:23:49;7.72;;;6.05;;
74152;SDS011;62505;46.070;14.492;2023-02-18T07:26:16;8.77;;;5.65;;
74152;SDS011;62505;46.070;14.492;2023-02-18T07:28:43;7.97;;;6.18;;
74152;SDS011;62505;46.070;14.492;2023-02-18T07:31:10;9.88;;;6.30;;
74152;SDS011;62505;46.070;14.492;2023-02-18T07:33:37;7.95;;;6.70;;
74152;SDS011;62505;46.070;14.492;2023-02-18T07:36:05;9.55;;;6.40;;
74152;SDS011;62505;46.070;14.492;2023-02-18T07:38:34;8.55;;;6.55;;
74152;SDS011;62505;46.070;14.492;2023-02-18T07:41:01;7.90;;;6.32;;
74152;SDS011;62505;46.070;14.492;2023-02-18T07:43:28;7.57;;;6.18;;
74152;SDS011;62505;46.070;14.492;2023-02-18T07:45:55;8.70;;;6.05;;
74152;SDS011;62505;46.070;14.492;2023-02-18T07:48:22;7.80;;;6.38;;
74152;SDS011;62505;46.070;14.492;2023-02-18T07:50:49;8.23;;;6.18;;
74152;SDS011;62505;46.070;14.492;2023-02-18T07:53:16;8.10;;;6.63;;
74152;SDS011;62505;46.070;14.492;2023-02-18T07:55:45;7.50;;;6.38;;
74152;SDS011;62505;46.070;14.492;2023-02-18T07:58:15;8.90;;;6.15;;
74152;SDS011;62505;46.070;14.492;2023-02-18T08:00:42;8.48;;;6.25;;
74152;SDS011;62505;46.070;14.492;2023-02-18T08:03:09;7.65;;;6.15;;
74152;SDS011;62505;46.070;14.492;2023-02-18T08:05:36;7.57;;;5.95;;
74152;SDS011;62505;46.070;14.492;2023-02-18T08:08:03;7.75;;;5.97;;
74152;SDS011;62505;46.070;14.492;2023-02-18T08:10:30;10.85;;;5.80;;
74152;SDS011;62505;46.070;14.492;2023-02-18T08:12:58;8.35;;;6.20;;
74152;SDS011;62505;46.070;14.492;2023-02-18T08:15:26;7.38;;;6.10;;
74152;SDS011;62505;46.070;14.492;2023-02-18T08:17:52;7.68;;;6.20;;
74152;SDS011;62505;46.070;14.492;2023-02-18T08:20:20;7.88;;;6.35;;
74152;SDS011;62505;46.070;14.492;2023-02-18T08:22:47;7.95;;;6.03;;
74152;SDS011;62505;46.070;14.492;2023-02-18T08:25:14;8.75;;;6.38;;
74152;SDS011;62505;46.070;14.492;2023-02-18T08:27:41;8.65;;;6.50;;
74152;SDS011;62505;46.070;14.492;2023-02-18T08:30:09;8.02;;;6.60;;
74152;SDS011;62505;46.070;14.492;2023-02-18T08:32:37;7.25;;;5.93;;
74152;SDS011;62505;46.070;14.492;2023-02-18T08:35:04;7.40;;;6.00;;
74152;SDS011;62505;46.070;14.492;2023-02-18T08:37:32;7.65;;;5.95;;
74152;SDS011;62505;46.070;14.492;2023-02-18T08:40:00;9.00;;;6.78;;
74152;SDS011;62505;46.070;14.492;2023-02-18T08:42:27;8.25;;;6.38;;
74152;SDS011;62505;46.070;14.492;2023-02-18T08:44:55;7.13;;;6.18;;
74152;SDS011;62505;46.070;14.492;2023-02-18T08:47:24;8.35;;;6.43;;
74152;SDS011;62505;46.070;14.492;2023-02-18T08:49:51;33.17;;;19.55;;
74152;SDS011;62505;46.070;14.492;2023-02-18T08:52:18;43.05;;;26.65;;
74152;SDS011;62505;46.070;14.492;2023-02-18T08:54:45;48.20;;;28.48;;
74152;SDS011;62505;46.070;14.492;2023-02-18T08:57:12;51.28;;;30.17;;
74152;SDS011;62505;46.070;14.492;2023-02-18T08:59:39;52.00;;;30.15;;
74152;SDS011;62505;46.070;14.492;2023-02-18T09:02:06;50.83;;;30.50;;
74152;SDS011;62505;46.070;14.492;2023-02-18T09:04:36;52.42;;;30.77;;
74152;SDS011;62505;46.070;14.492;2023-02-18T09:07:03;55.42;;;31.20;;
74152;SDS011;62505;46.070;14.492;2023-02-18T09:09:30;52.95;;;30.58;;
74152;SDS011;62505;46.070;14.492;2023-02-18T09:11:57;54.53;;;31.85;;
74152;SDS011;62505;46.070;14.492;2023-02-18T09:14:24;51.85;;;30.35;;
74152;SDS011;62505;46.070;14.492;2023-02-18T09:16:51;49.53;;;28.98;;
74152;SDS011;62505;46.070;14.492;2023-02-18T09:19:18;54.85;;;31.17;;
74152;SDS011;62505;46.070;14.492;2023-02-18T09:21:47;53.25;;;30.83;;
74152;SDS011;62505;46.070;14.492;2023-02-18T09:24:15;54.53;;;30.83;;
74152;SDS011;62505;46.070;14.492;2023-02-18T09:26:42;50.78;;;29.70;;
74152;SDS011;62505;46.070;14.492;2023-02-18T09:29:09;47.67;;;29.30;;
74152;SDS011;62505;46.070;14.492;2023-02-18T09:31:36;46.35;;;27.25;;
74152;SDS011;62505;46.070;14.492;2023-02-18T09:34:04;47.20;;;28.10;;
74152;SDS011;62505;46.070;14.492;2023-02-18T09:36:32;49.92;;;29.67;;
74152;SDS011;62505;46.070;14.492;2023-02-18T09:39:00;50.20;;;28.50;;
74152;SDS011;62505;46.070;14.492;2023-02-18T09:41:32;50.08;;;28.70;;
74152;SDS011;62505;46.070;14.492;2023-02-18T09:44:04;49.45;;;29.15;;
74152;SDS011;62505;46.070;14.492;2023-02-18T09:46:38;48.88;;;27.35;;
74152;SDS011;62505;46.070;14.492;2023-02-18T09:49:11;46.15;;;26.85;;
74152;SDS011;62505;46.070;14.492;2023-02-18T09:51:41;48.90;;;27.83;;
74152;SDS011;62505;46.070;14.492;2023-02-18T09:54:10;31.00;;;18.63;;
74152;SDS011;62505;46.070;14.492;2023-02-18T09:56:39;25.55;;;16.50;;
74152;SDS011;62505;46.070;14.492;2023-02-18T09:59:10;26.45;;;15.38;;
74152;SDS011;62505;46.070;14.492;2023-02-18T10:01:41;22.92;;;14.38;;
74152;SDS011;62505;46.070;14.492;2023-02-18T10:04:12;24.98;;;13.75;;
74152;SDS011;62505;46.070;14.492;2023-02-18T10:06:42;24.98;;;14.40;;
74152;SDS011;62505;46.070;14.492;2023-02-18T10:09:14;24.05;;;12.70;;
74152;SDS011;62505;46.070;14.492;2023-02-18T10:11:47;21.48;;;13.23;;
74152;SDS011;62505;46.070;14.492;2023-02-18T10:14:15;20.85;;;13.30;;
74152;SDS011;62505;46.070;14.492;2023-02-18T10:16:43;20.80;;;12.38;;
74152;SDS011;62505;46.070;14.492;2023-02-18T10:19:17;19.77;;;12.27;;
74152;SDS011;62505;46.070;14.492;2023-02-18T10:21:47;16.90;;;11.52;;
74152;SDS011;62505;46.070;14.492;2023-02-18T10:24:19;20.27;;;11.55;;
74152;SDS011;62505;46.070;14.492;2023-02-18T10:26:52;20.27;;;11.20;;
74152;SDS011;62505;46.070;14.492;2023-02-18T10:29:20;18.45;;;11.70;;
74152;SDS011;62505;46.070;14.492;2023-02-18T10:31:50;14.65;;;10.18;;
74152;SDS011;62505;46.070;14.492;2023-02-18T10:34:23;17.92;;;11.05;;
74152;SDS011;62505;46.070;14.492;2023-02-18T10:36:59;12.82;;;9.57;;
74152;SDS011;62505;46.070;14.492;2023-02-18T10:39:47;16.73;;;9.40;;
74152;SDS011;62505;46.070;14.492;2023-02-18T10:42:28;15.15;;;9.60;;
74152;SDS011;62505;46.070;14.492;2023-02-18T10:45:07;13.07;;;9.13;;
74152;SDS011;62505;46.070;14.492;2023-02-18T10:47:46;14.50;;;9.45;;
74152;SDS011;62505;46.070;14.492;2023-02-18T10:50:24;13.68;;;9.05;;
74152;SDS011;62505;46.070;14.492;2023-02-18T10:52:54;12.82;;;8.35;;
74152;SDS011;62505;46.070;14.492;2023-02-18T10:55:34;12.30;;;9.05;;
74152;SDS011;62505;46.070;14.492;2023-02-18T10:58:03;13.45;;;9.18;;
74152;SDS011;62505;46.070;14.492;2023-02-18T11:00:48;13.40;;;8.48;;
74152;SDS011;62505;46.070;14.492;2023-02-18T11:03:16;15.45;;;8.82;;
74152;SDS011;62505;46.070;14.492;2023-02-18T11:05:46;11.38;;;8.30;;
74152;SDS011;62505;46.070;14.492;2023-02-18T11:08:16;12.52;;;8.85;;
74152;SDS011;62505;46.070;14.492;2023-02-18T11:10:48;13.00;;;8.85;;
74152;SDS011;62505;46.070;14.492;2023-02-18T11:13:16;13.75;;;8.70;;
74152;SDS011;62505;46.070;14.492;2023-02-18T11:15:58;10.40;;;8.35;;
74152;SDS011;62505;46.070;14.492;2023-02-18T11:18:29;13.15;;;8.45;;
74152;SDS011;62505;46.070;14.492;2023-02-18T11:21:03;13.85;;;8.48;;
74152;SDS011;62505;46.070;14.492;2023-02-18T11:23:32;14.63;;;7.63;;
74152;SDS011;62505;46.070;14.492;2023-02-18T11:26:14;10.55;;;8.05;;
74152;SDS011;62505;46.070;14.492;2023-02-18T11:28:42;10.82;;;8.20;;
74152;SDS011;62505;46.070;14.492;2023-02-18T11:31:15;11.63;;;7.70;;
74152;SDS011;62505;46.070;14.492;2023-02-18T11:33:47;11.82;;;8.07;;
74152;SDS011;62505;46.070;14.492;2023-02-18T11:36:17;14.00;;;8.70;;
74152;SDS011;62505;46.070;14.492;2023-02-18T11:38:49;10.80;;;7.70;;
74152;SDS011;62505;46.070;14.492;2023-02-18T11:41:20;12.20;;;8.52;;
74152;SDS011;62505;46.070;14.492;2023-02-18T11:43:55;11.90;;;8.10;;
74152;SDS011;62505;46.070;14.492;2023-02-18T11:46:25;16.20;;;9.00;;
74152;SDS011;62505;46.070;14.492;2023-02-18T11:48:52;11.20;;;7.85;;
74152;SDS011;62505;46.070;14.492;2023-02-18T11:51:22;11.65;;;8.23;;
74152;SDS011;62505;46.070;14.492;2023-02-18T11:53:54;12.73;;;8.02;;
74152;SDS011;62505;46.070;14.492;2023-02-18T11:56:26;14.50;;;8.38;;
74152;SDS011;62505;46.070;14.492;2023-02-18T11:58:55;11.90;;;7.85;;
74152;SDS011;62505;46.070;14.492;2023-02-18T12:01:27;11.40;;;8.10;;
74152;SDS011;62505;46.070;14.492;2023-02-18T12:04:05;12.23;;;8.35;;
74152;SDS011;62505;46.070;14.492;2023-02-18T12:06:37;10.98;;;7.93;;
74152;SDS011;62505;46.070;14.492;2023-02-18T12:09:19;11.55;;;7.70;;
74152;SDS011;62505;46.070;14.492;2023-02-18T12:11:53;12.23;;;7.93;;
74152;SDS011;62505;46.070;14.492;2023-02-18T12:14:24;12.45;;;7.78;;
74152;SDS011;62505;46.070;14.492;2023-02-18T12:16:56;11.05;;;7.35;;
74152;SDS011;62505;46.070;14.492;2023-02-18T12:19:48;11.20;;;8.18;;
74152;SDS011;62505;46.070;14.492;2023-02-18T12:22:30;10.82;;;7.55;;
74152;SDS011;62505;46.070;14.492;2023-02-18T12:25:19;13.65;;;8.00;;
74152;SDS011;62505;46.070;14.492;2023-02-18T12:27:55;19.98;;;8.73;;
74152;SDS011;62505;46.070;14.492;2023-02-18T12:30:57;10.80;;;7.70;;
74152;SDS011;62505;46.070;14.492;2023-02-18T12:33:37;11.82;;;7.35;;
74152;SDS011;62505;46.070;14.492;2023-02-18T12:36:12;13.80;;;8.13;;
74152;SDS011;62505;46.070;14.492;2023-02-18T12:38:53;12.07;;;7.40;;
74152;SDS011;62505;46.070;14.492;2023-02-18T12:41:31;10.32;;;7.95;;
74152;SDS011;62505;46.070;14.492;2023-02-18T12:44:24;10.27;;;7.57;;
74152;SDS011;62505;46.070;14.492;2023-02-18T12:53:00;12.27;;;7.68;;
74152;SDS011;62505;46.070;14.492;2023-02-18T12:55:46;11.48;;;7.97;;
74152;SDS011;62505;46.070;14.492;2023-02-18T12:58:27;10.70;;;7.60;;
74152;SDS011;62505;46.070;14.492;2023-02-18T13:01:10;12.95;;;8.20;;
74152;SDS011;62505;46.070;14.492;2023-02-18T13:07:09;11.07;;;8.23;;
74152;SDS011;62505;46.070;14.492;2023-02-18T13:09:55;12.20;;;7.68;;
74152;SDS011;62505;46.070;14.492;2023-02-18T13:12:34;12.90;;;7.40;;
74152;SDS011;62505;46.070;14.492;2023-02-18T13:15:10;9.90;;;7.55;;
74152;SDS011;62505;46.070;14.492;2023-02-18T13:17:44;13.90;;;7.38;;
74152;SDS011;62505;46.070;14.492;2023-02-18T13:20:13;11.80;;;7.57;;
74152;SDS011;62505;46.070;14.492;2023-02-18T13:22:45;10.75;;;7.43;;
74152;SDS011;62505;46.070;14.492;2023-02-18T13:25:14;10.80;;;7.32;;
74152;SDS011;62505;46.070;14.492;2023-02-18T13:27:44;11.82;;;7.55;;
74152;SDS011;62505;46.070;14.492;2023-02-18T13:30:21;11.00;;;6.85;;
74152;SDS011;62505;46.070;14.492;2023-02-18T13:32:59;11.38;;;8.23;;
74152;SDS011;62505;46.070;14.492;2023-02-18T13:35:33;14.25;;;6.78;;
74152;SDS011;62505;46.070;14.492;2023-02-18T13:38:11;11.18;;;7.50;;
74152;SDS011;62505;46.070;14.492;2023-02-18T13:40:51;13.27;;;7.35;;
74152;SDS011;62505;46.070;14.492;2023-02-18T13:43:27;10.85;;;7.15;;
74152;SDS011;62505;46.070;14.492;2023-02-18T13:48:43;9.90;;;7.78;;
74152;SDS011;62505;46.070;14.492;2023-02-18T13:51:14;11.32;;;7.50;;
74152;SDS011;62505;46.070;14.492;2023-02-18T13:53:43;10.77;;;7.35;;
74152;SDS011;62505;46.070;14.492;2023-02-18T13:56:20;12.05;;;7.60;;
74152;SDS011;62505;46.070;14.492;2023-02-18T13:58:53;10.43;;;7.15;;
74152;SDS011;62505;46.070;14.492;2023-02-18T14:01:30;13.10;;;7.43;;
74152;SDS011;62505;46.070;14.492;2023-02-18T14:04:32;8.93;;;6.65;;
74152;SDS011;62505;46.070;14.492;2023-02-18T14:07:37;10.45;;;7.50;;
74152;SDS011;62505;46.070;14.492;2023-02-18T14:10:24;13.27;;;7.25;;
74152;SDS011;62505;46.070;14.492;2023-02-18T14:13:01;9.57;;;7.18;;
74152;SDS011;62505;46.070;14.492;2023-02-18T14:15:59;11.23;;;7.10;;
74152;SDS011;62505;46.070;14.492;2023-02-18T14:18:33;11.45;;;7.05;;
74152;SDS011;62505;46.070;14.492;2023-02-18T14:21:36;8.02;;;6.78;;
74152;SDS011;62505;46.070;14.492;2023-02-18T14:24:05;12.10;;;7.13;;
74152;SDS011;62505;46.070;14.492;2023-02-18T14:26:44;9.82;;;6.55;;
74152;SDS011;62505;46.070;14.492;2023-02-18T14:29:23;9.43;;;7.30;;
74152;SDS011;62505;46.070;14.492;2023-02-18T14:31:54;9.75;;;7.72;;
74152;SDS011;62505;46.070;14.492;2023-02-18T14:40:36;11.32;;;7.55;;
74152;SDS011;62505;46.070;14.492;2023-02-18T14:43:32;11.35;;;7.07;;
74152;SDS011;62505;46.070;14.492;2023-02-18T14:46:17;11.60;;;7.97;;
74152;SDS011;62505;46.070;14.492;2023-02-18T14:48:57;9.45;;;7.30;;
74152;SDS011;62505;46.070;14.492;2023-02-18T14:51:38;10.88;;;7.95;;
74152;SDS011;62505;46.070;14.492;2023-02-18T14:54:13;12.75;;;7.38;;
74152;SDS011;62505;46.070;14.492;2023-02-18T14:56:45;9.75;;;6.93;;
74152;SDS011;62505;46.070;14.492;2023-02-18T14:59:19;10.00;;;6.97;;
74152;SDS011;62505;46.070;14.492;2023-02-18T15:01:48;10.75;;;7.38;;
74152;SDS011;62505;46.070;14.492;2023-02-18T15:04:19;9.65;;;6.70;;
74152;SDS011;62505;46.070;14.492;2023-02-18T15:06:53;9.30;;;6.80;;
74152;SDS011;62505;46.070;14.492;2023-02-18T15:09:25;9.18;;;6.65;;
74152;SDS011;62505;46.070;14.492;2023-02-18T15:11:54;10.35;;;6.80;;
74152;SDS011;62505;46.070;14.492;2023-02-18T15:14:24;11.23;;;7.03;;
74152;SDS011;62505;46.070;14.492;2023-02-18T15:16:54;8.80;;;6.80;;
74152;SDS011;62505;46.070;14.492;2023-02-18T15:19:23;9.13;;;7.00;;
74152;SDS011;62505;46.070;14.492;2023-02-18T15:21:52;9.70;;;6.85;;
74152;SDS011;62505;46.070;14.492;2023-02-18T15:24:23;9.15;;;6.55;;
74152;SDS011;62505;46.070;14.492;2023-02-18T15:26:54;11.45;;;7.10;;